createdAt,value
2022-10-16T00:01:22.380Z,0.70
2022-10-16T00:04:10.757Z,0.90
2022-10-16T00:06:58.212Z,1.00
2022-10-16T00:09:45.625Z,1.37
2022-10-16T00:12:32.850Z,1.10
2022-10-16T00:15:21.685Z,1.13
2022-10-16T00:18:09.268Z,1.03
2022-10-16T00:20:57.879Z,0.70
2022-10-16T00:23:45.650Z,0.80
2022-10-16T00:26:35.451Z,1.10
2022-10-16T00:29:22.666Z,1.47
2022-10-16T00:32:11.379Z,0.93
2022-10-16T00:34:59.092Z,0.90
2022-10-16T00:37:46.552Z,0.90
2022-10-16T00:40:33.953Z,0.80
2022-10-16T00:43:39.303Z,1.10
2022-10-16T00:46:31.028Z,0.90
2022-10-16T00:49:22.304Z,0.80
2022-10-16T00:52:10.523Z,0.70
2022-10-16T00:54:59.384Z,0.70
2022-10-16T00:57:47.500Z,0.80
2022-10-16T01:00:35.104Z,0.77
2022-10-16T01:03:30.249Z,0.70
2022-10-16T01:06:34.169Z,1.00
2022-10-16T01:09:26.331Z,0.83
2022-10-16T01:12:25.307Z,1.10
2022-10-16T01:15:24.664Z,0.80
2022-10-16T01:18:21.288Z,0.80
2022-10-16T01:21:13.011Z,0.70
2022-10-16T01:24:11.080Z,0.80
2022-10-16T01:27:16.307Z,1.10
2022-10-16T01:30:12.264Z,0.80
2022-10-16T01:33:05.304Z,0.90
2022-10-16T01:35:57.399Z,0.90
2022-10-16T01:38:50.157Z,0.60
2022-10-16T01:41:41.888Z,0.63
2022-10-16T01:44:33.667Z,0.60
2022-10-16T01:47:24.616Z,0.70
2022-10-16T01:50:12.859Z,0.60
2022-10-16T01:53:02.756Z,0.90
2022-10-16T01:55:51.212Z,0.83
2022-10-16T01:58:45.225Z,0.60
2022-10-16T02:01:36.919Z,1.03
2022-10-16T02:04:30.436Z,0.60
2022-10-16T02:07:18.352Z,0.70
2022-10-16T02:10:06.763Z,0.50
2022-10-16T02:13:02.369Z,0.60
2022-10-16T02:15:49.844Z,0.50
2022-10-16T02:18:38.727Z,0.50
2022-10-16T02:21:31.688Z,0.60
2022-10-16T02:24:29.101Z,0.50
2022-10-16T02:27:25.187Z,0.53
2022-10-16T02:30:20.576Z,0.50
2022-10-16T02:33:11.889Z,0.47
2022-10-16T02:36:01.242Z,0.50
2022-10-16T02:38:48.408Z,0.60
2022-10-16T02:41:36.505Z,0.70
2022-10-16T02:44:23.858Z,0.60
2022-10-16T02:49:58.787Z,0.60
2022-10-16T02:52:47.792Z,0.43
2022-10-16T02:55:35.433Z,0.40
2022-10-16T02:58:22.756Z,0.50
2022-10-16T03:01:10.943Z,0.50
2022-10-16T03:03:58.307Z,0.60
2022-10-16T03:06:45.500Z,0.43
2022-10-16T03:09:34.138Z,0.50
2022-10-16T03:12:21.742Z,0.50
2022-10-16T03:15:10.423Z,0.40
2022-10-16T03:18:00.484Z,0.40
2022-10-16T03:20:47.833Z,0.40
2022-10-16T03:23:35.364Z,0.60
2022-10-16T03:26:24.277Z,0.50
2022-10-16T03:29:11.641Z,0.50
2022-10-16T03:31:59.086Z,0.50
2022-10-16T03:34:46.697Z,0.60
2022-10-16T03:37:34.292Z,0.50
2022-10-16T03:40:21.999Z,0.63
2022-10-16T03:43:10.997Z,0.57
2022-10-16T03:45:58.545Z,0.50
2022-10-16T03:48:45.801Z,0.40
2022-10-16T03:51:33.377Z,0.50
2022-10-16T03:54:20.971Z,0.77
2022-10-16T03:57:08.427Z,0.40
2022-10-16T03:59:57.040Z,0.40
2022-10-16T04:05:32.205Z,0.37
2022-10-16T04:08:20.009Z,0.40
2022-10-16T04:11:07.687Z,0.57
2022-10-16T04:13:55.000Z,0.60
2022-10-16T04:16:43.761Z,0.40
2022-10-16T04:19:31.173Z,0.60
2022-10-16T04:22:18.815Z,0.50
2022-10-16T04:25:07.231Z,0.63
2022-10-16T04:27:55.583Z,0.50
2022-10-16T04:30:43.062Z,0.50
2022-10-16T04:33:32.043Z,0.57
2022-10-16T04:36:19.315Z,0.50
2022-10-16T04:39:06.607Z,0.60
2022-10-16T04:41:54.148Z,0.87
2022-10-16T04:44:41.455Z,0.60
2022-10-16T04:47:28.991Z,0.90
2022-10-16T04:50:18.558Z,0.60
2022-10-16T04:53:22.514Z,0.60
2022-10-16T04:56:09.827Z,0.70
2022-10-16T04:58:57.296Z,0.60
2022-10-16T05:01:44.882Z,0.90
2022-10-16T05:04:32.143Z,0.60
2022-10-16T05:07:20.913Z,0.70
2022-10-16T05:10:09.177Z,0.50
2022-10-16T05:12:56.500Z,0.90
2022-10-16T05:15:43.861Z,1.00
2022-10-16T05:18:30.960Z,1.10
2022-10-16T05:21:18.167Z,1.00
2022-10-16T05:24:07.010Z,0.90
2022-10-16T05:26:54.461Z,0.60
2022-10-16T05:29:41.855Z,0.40
2022-10-16T05:32:29.161Z,0.60
2022-10-16T05:35:16.880Z,0.90
2022-10-16T05:38:05.977Z,0.80
2022-10-16T05:40:55.056Z,0.90
2022-10-16T05:43:42.435Z,1.10
2022-10-16T05:46:29.752Z,0.90
2022-10-16T05:49:17.508Z,1.10
2022-10-16T05:52:05.167Z,1.00
2022-10-16T05:54:52.653Z,0.93
2022-10-16T05:57:41.573Z,0.83
2022-10-16T06:00:29.288Z,0.80
2022-10-16T06:03:16.472Z,0.80
2022-10-16T06:05:45.525Z,0.50
2022-10-16T06:08:14.535Z,0.70
2022-10-16T06:10:44.678Z,0.40
2022-10-16T06:13:16.129Z,0.70
2022-10-16T06:15:45.304Z,1.30
2022-10-16T06:18:14.284Z,1.00
2022-10-16T06:20:43.384Z,0.80
2022-10-16T06:23:12.354Z,0.90
2022-10-16T06:25:41.373Z,0.70
2022-10-16T06:28:10.340Z,0.87
2022-10-16T06:30:40.704Z,0.80
2022-10-16T06:33:09.675Z,0.67
2022-10-16T06:35:38.683Z,2.07
2022-10-16T06:38:07.710Z,1.20
2022-10-16T06:40:36.756Z,1.10
2022-10-16T06:43:05.706Z,1.30
2022-10-16T06:45:34.810Z,1.00
2022-10-16T06:48:05.509Z,0.77
2022-10-16T06:50:34.564Z,1.00
2022-10-16T06:53:03.545Z,0.80
2022-10-16T06:55:32.620Z,0.83
2022-10-16T06:58:01.626Z,1.00
2022-10-16T07:00:30.691Z,1.00
2022-10-16T07:02:59.743Z,0.70
2022-10-16T07:05:30.154Z,0.90
2022-10-16T07:07:59.157Z,0.70
2022-10-16T07:10:28.157Z,0.80
2022-10-16T07:12:57.124Z,0.90
2022-10-16T07:15:28.176Z,1.40
2022-10-16T07:17:57.192Z,1.30
2022-10-16T07:20:26.192Z,1.40
2022-10-16T07:22:56.549Z,1.30
2022-10-16T07:25:25.825Z,1.10
2022-10-16T07:27:57.772Z,1.17
2022-10-16T07:30:26.917Z,0.90
2022-10-16T07:32:55.920Z,0.70
2022-10-16T07:35:24.964Z,0.93
2022-10-16T07:37:53.988Z,0.90
2022-10-16T07:40:24.388Z,0.90
2022-10-16T07:42:53.354Z,0.80
2022-10-16T07:45:22.524Z,0.80
2022-10-16T07:47:51.478Z,0.60
2022-10-16T07:50:20.465Z,0.70
2022-10-16T07:52:49.559Z,1.07
2022-10-16T07:55:18.528Z,0.77
2022-10-16T07:57:48.952Z,1.17
2022-10-16T08:00:18.361Z,1.20
2022-10-16T08:02:47.765Z,0.97
2022-10-16T08:05:16.963Z,0.90
2022-10-16T08:07:50.559Z,0.90
2022-10-16T08:10:22.421Z,0.80
2022-10-16T08:12:53.844Z,0.90
2022-10-16T08:15:23.770Z,0.90
2022-10-16T08:18:00.457Z,1.00
2022-10-16T08:20:31.626Z,0.70
2022-10-16T08:23:01.760Z,0.90
2022-10-16T08:25:31.518Z,1.20
2022-10-16T08:28:01.874Z,1.10
2022-10-16T08:30:30.944Z,0.90
2022-10-16T08:33:00.099Z,1.07
2022-10-16T08:35:29.100Z,1.17
2022-10-16T08:37:58.342Z,1.00
2022-10-16T08:40:32.093Z,0.80
2022-10-16T08:43:34.174Z,0.90
2022-10-16T08:46:22.500Z,0.90
2022-10-16T08:48:54.317Z,0.90
2022-10-16T08:51:26.617Z,0.80
2022-10-16T08:53:59.004Z,0.60
2022-10-16T08:56:28.647Z,0.87
2022-10-16T08:59:03.218Z,0.70
2022-10-16T09:01:43.455Z,0.80
2022-10-16T09:04:46.562Z,0.53
2022-10-16T09:07:25.147Z,0.90
2022-10-16T09:10:16.440Z,1.10
2022-10-16T09:12:55.505Z,1.00
2022-10-16T09:15:33.760Z,1.30
2022-10-16T09:18:12.311Z,0.90
2022-10-16T09:20:52.274Z,1.00
2022-10-16T09:23:27.782Z,0.80
2022-10-16T09:25:58.342Z,0.90
2022-10-16T09:28:27.974Z,1.10
2022-10-16T09:30:58.468Z,0.87
2022-10-16T09:33:32.800Z,0.87
2022-10-16T09:36:02.091Z,1.10
2022-10-16T09:38:33.786Z,1.03
2022-10-16T09:41:04.917Z,1.00
2022-10-16T09:43:41.697Z,0.77
2022-10-16T09:46:28.022Z,1.10
2022-10-16T09:48:59.736Z,1.50
2022-10-16T09:51:32.379Z,1.03
2022-10-16T09:54:04.064Z,1.63
2022-10-16T09:56:37.105Z,1.10
2022-10-16T09:59:14.643Z,1.10
2022-10-16T10:01:49.986Z,0.90
2022-10-16T10:04:19.595Z,1.67
2022-10-16T10:06:51.443Z,1.10
2022-10-16T10:09:24.005Z,0.80
2022-10-16T10:11:56.435Z,0.90
2022-10-16T10:14:30.144Z,0.80
2022-10-16T10:17:17.856Z,1.00
2022-10-16T10:19:52.277Z,0.97
2022-10-16T10:22:33.365Z,1.00
2022-10-16T10:25:47.107Z,0.70
2022-10-16T10:28:54.072Z,0.60
2022-10-16T10:31:29.474Z,0.87
2022-10-16T10:34:09.818Z,0.90
2022-10-16T10:36:41.105Z,1.03
2022-10-16T10:39:18.182Z,0.93
2022-10-16T10:42:25.670Z,1.07
2022-10-16T10:45:19.420Z,0.80
2022-10-16T10:48:05.931Z,0.90
2022-10-16T10:50:44.209Z,0.90
2022-10-16T10:53:38.719Z,0.97
2022-10-16T10:56:22.947Z,0.90
2022-10-16T10:59:26.876Z,0.90
2022-10-16T11:02:02.040Z,0.60
2022-10-16T11:04:58.660Z,0.90
2022-10-16T11:07:33.386Z,0.80
2022-10-16T11:10:11.681Z,0.80
2022-10-16T11:12:46.070Z,1.10
2022-10-16T11:15:19.501Z,0.80
2022-10-16T11:17:54.323Z,0.80
2022-10-16T11:20:28.956Z,0.70
2022-10-16T11:23:04.855Z,0.88
2022-10-16T11:25:35.404Z,1.00
2022-10-16T11:28:10.878Z,0.70
2022-10-16T11:30:48.793Z,0.70
2022-10-16T11:33:32.534Z,0.70
2022-10-16T11:36:10.593Z,0.77
2022-10-16T11:38:51.994Z,0.90
2022-10-16T11:41:28.812Z,0.70
2022-10-16T11:44:20.383Z,1.10
2022-10-16T11:47:28.645Z,1.70
2022-10-16T11:49:55.551Z,1.90
2022-10-16T11:52:32.332Z,1.40
2022-10-16T11:55:15.580Z,1.00
2022-10-16T11:57:48.489Z,1.20
2022-10-16T12:00:26.121Z,1.00
2022-10-16T12:03:06.723Z,0.80
2022-10-16T12:05:56.401Z,0.98
2022-10-16T12:08:26.125Z,1.10
2022-10-16T12:11:08.780Z,1.10
2022-10-16T12:13:41.059Z,1.17
2022-10-16T12:16:24.432Z,2.03
2022-10-16T12:19:13.894Z,2.90
2022-10-16T12:21:43.968Z,2.50
2022-10-16T12:24:32.436Z,1.83
2022-10-16T12:27:03.674Z,1.40
2022-10-16T12:29:38.770Z,0.90
2022-10-16T12:32:45.695Z,0.77
2022-10-16T12:35:23.233Z,0.90
2022-10-16T12:37:53.233Z,0.77
2022-10-16T12:40:34.504Z,1.83
2022-10-16T12:43:37.635Z,2.85
2022-10-16T12:46:25.063Z,2.63
2022-10-16T12:49:09.235Z,3.47
2022-10-16T12:51:39.400Z,2.45
2022-10-16T12:54:17.329Z,2.65
2022-10-16T12:57:01.997Z,1.50
2022-10-16T12:59:42.057Z,1.30
2022-10-16T13:02:56.353Z,1.10
2022-10-16T13:05:44.029Z,0.90
2022-10-16T13:08:36.942Z,1.27
2022-10-16T13:11:13.654Z,3.33
2022-10-16T13:14:17.360Z,4.05
2022-10-16T13:17:01.848Z,3.13
2022-10-16T13:19:39.308Z,2.13
2022-10-16T13:22:18.787Z,1.30
2022-10-16T13:25:06.227Z,1.30
2022-10-16T13:27:46.841Z,1.20
2022-10-16T13:30:20.601Z,3.05
2022-10-16T13:32:56.330Z,3.15
2022-10-16T13:35:29.675Z,2.63
2022-10-16T13:38:15.632Z,1.40
2022-10-16T13:40:56.947Z,1.05
2022-10-16T13:43:34.867Z,0.93
2022-10-16T13:46:06.567Z,0.80
2022-10-16T13:48:37.135Z,0.88
2022-10-16T13:51:13.567Z,0.98
2022-10-16T13:53:42.962Z,1.52
2022-10-16T13:56:16.344Z,1.20
2022-10-16T13:58:46.637Z,1.33
2022-10-16T14:01:20.615Z,1.60
2022-10-16T14:03:52.126Z,1.00
2022-10-16T14:06:24.008Z,1.30
2022-10-16T14:09:01.088Z,1.20
2022-10-16T14:11:31.006Z,1.10
2022-10-16T14:14:00.163Z,1.10
2022-10-16T14:16:33.026Z,1.00
2022-10-16T14:19:07.740Z,1.15
2022-10-16T14:21:37.352Z,1.00
2022-10-16T14:24:13.922Z,1.00
2022-10-16T14:26:50.999Z,1.15
2022-10-16T14:29:22.025Z,1.00
2022-10-16T14:31:59.478Z,1.00
2022-10-16T14:34:34.451Z,1.10
2022-10-16T14:39:38.650Z,1.10
2022-10-16T14:42:16.508Z,1.65
2022-10-16T14:44:45.831Z,1.30
2022-10-16T14:47:23.209Z,1.08
2022-10-16T14:49:56.218Z,1.60
2022-10-16T14:52:25.418Z,1.90
2022-10-16T14:54:55.691Z,1.90
2022-10-16T14:57:29.371Z,1.80
2022-10-16T15:00:00.245Z,1.63
2022-10-16T15:02:33.182Z,1.30
2022-10-16T15:05:15.488Z,1.73
2022-10-16T15:07:45.148Z,1.10
2022-10-16T15:10:14.957Z,1.02
2022-10-16T15:12:44.307Z,3.53
2022-10-16T15:15:34.860Z,3.47
2022-10-16T15:18:04.417Z,2.07
2022-10-16T15:20:38.556Z,2.00
2022-10-16T15:23:16.031Z,1.90
2022-10-16T15:25:47.993Z,1.50
2022-10-16T15:28:18.699Z,1.50
2022-10-16T15:30:49.296Z,1.60
2022-10-16T15:33:22.392Z,1.67
2022-10-16T15:35:54.100Z,1.73
2022-10-16T15:38:24.986Z,1.50
2022-10-16T15:40:54.258Z,1.20
2022-10-16T15:43:24.313Z,1.30
2022-10-16T15:46:03.394Z,1.40
2022-10-16T15:48:33.330Z,1.40
2022-10-16T15:51:08.510Z,1.03
2022-10-16T15:53:38.204Z,1.33
2022-10-16T15:56:08.936Z,1.20
2022-10-16T15:58:38.679Z,1.13
2022-10-16T16:01:10.740Z,1.30
2022-10-16T16:03:41.930Z,1.30
2022-10-16T16:06:14.432Z,1.20
2022-10-16T16:08:44.040Z,1.40
2022-10-16T16:11:15.403Z,1.27
2022-10-16T16:13:44.583Z,1.30
2022-10-16T16:16:15.644Z,1.20
2022-10-16T16:18:45.373Z,1.27
2022-10-16T16:21:16.026Z,1.50
2022-10-16T16:23:45.060Z,1.30
2022-10-16T16:26:16.774Z,1.10
2022-10-16T16:28:45.950Z,1.20
2022-10-16T16:31:15.216Z,1.30
2022-10-16T16:33:44.161Z,1.40
2022-10-16T16:36:15.776Z,1.40
2022-10-16T16:38:47.045Z,1.50
2022-10-16T16:41:17.931Z,1.60
2022-10-16T16:43:48.256Z,1.30
2022-10-16T16:46:17.730Z,1.20
2022-10-16T16:48:47.320Z,1.27
2022-10-16T16:51:20.686Z,1.13
2022-10-16T16:53:53.968Z,1.20
2022-10-16T16:56:25.116Z,1.63
2022-10-16T16:58:56.816Z,1.37
2022-10-16T17:01:28.564Z,1.23
2022-10-16T17:04:00.423Z,1.37
2022-10-16T17:06:31.508Z,1.50
2022-10-16T17:09:05.121Z,1.87
2022-10-16T17:11:34.549Z,1.80
2022-10-16T17:14:04.439Z,1.40
2022-10-16T17:16:36.880Z,1.40
2022-10-16T17:19:09.257Z,1.60
2022-10-16T17:21:39.163Z,1.00
2022-10-16T17:24:10.889Z,1.30
2022-10-16T17:26:43.704Z,1.40
2022-10-16T17:29:14.168Z,1.30
2022-10-16T17:31:43.444Z,1.30
2022-10-16T17:34:13.435Z,1.40
2022-10-16T17:36:46.866Z,1.60
2022-10-16T17:39:19.215Z,1.90
2022-10-16T17:41:49.427Z,2.63
2022-10-16T17:44:21.268Z,2.47
2022-10-16T17:46:54.338Z,2.03
2022-10-16T17:51:57.740Z,2.30
2022-10-16T17:54:28.107Z,3.23
2022-10-16T17:56:57.178Z,2.10
2022-10-16T17:59:26.283Z,2.07
2022-10-16T18:01:55.368Z,1.80
2022-10-16T18:04:24.576Z,1.90
2022-10-16T18:06:56.019Z,1.50
2022-10-16T18:09:25.084Z,1.83
2022-10-16T18:12:00.102Z,1.20
2022-10-16T18:14:31.939Z,1.40
2022-10-16T18:17:01.134Z,1.20
2022-10-16T18:19:30.356Z,1.27
2022-10-16T18:21:59.704Z,1.27
2022-10-16T18:24:28.863Z,1.20
2022-10-16T18:26:59.191Z,1.00
2022-10-16T18:29:29.911Z,1.30
2022-10-16T18:31:59.155Z,1.50
2022-10-16T18:34:28.249Z,1.77
2022-10-16T18:36:57.655Z,2.00
2022-10-16T18:39:26.686Z,1.97
2022-10-16T18:41:59.807Z,2.00
2022-10-16T18:44:31.347Z,1.90
2022-10-16T18:47:02.404Z,1.70
2022-10-16T18:49:31.539Z,2.13
2022-10-16T18:52:03.152Z,1.90
2022-10-16T18:54:32.694Z,2.20
2022-10-16T18:57:01.709Z,2.37
2022-10-16T18:59:32.144Z,2.20
2022-10-16T19:02:02.200Z,1.70
2022-10-16T19:04:31.304Z,1.77
2022-10-16T19:07:00.304Z,1.73
2022-10-16T19:09:29.395Z,1.40
2022-10-16T19:11:59.724Z,1.50
2022-10-16T19:14:30.092Z,1.97
2022-10-16T19:17:00.783Z,1.83
2022-10-16T19:19:29.896Z,1.30
2022-10-16T19:22:11.544Z,1.40
2022-10-16T19:24:40.920Z,1.70
2022-10-16T19:27:09.987Z,2.23
2022-10-16T19:29:39.011Z,1.80
2022-10-16T19:32:09.452Z,1.90
2022-10-16T19:34:38.747Z,1.80
2022-10-16T19:37:10.527Z,2.03
2022-10-16T19:39:39.489Z,3.03
2022-10-16T19:42:08.477Z,4.57
2022-10-16T19:44:37.625Z,4.27
2022-10-16T19:47:08.054Z,3.87
2022-10-16T19:49:37.253Z,4.27
2022-10-16T19:52:06.293Z,3.40
2022-10-16T19:54:35.826Z,4.40
2022-10-16T19:57:05.019Z,4.03
2022-10-16T19:59:34.200Z,4.43
2022-10-16T20:02:03.217Z,3.53
2022-10-16T20:04:52.181Z,2.60
2022-10-16T20:07:39.672Z,2.00
2022-10-16T20:10:27.083Z,2.00
2022-10-16T20:13:14.435Z,1.80
2022-10-16T20:18:56.267Z,1.60
2022-10-16T20:21:44.923Z,1.60
2022-10-16T20:24:32.433Z,1.60
2022-10-16T20:27:19.699Z,1.67
2022-10-16T20:30:08.360Z,1.70
2022-10-16T20:32:56.836Z,1.90
2022-10-16T20:35:46.847Z,1.57
2022-10-16T20:38:35.931Z,1.80
2022-10-16T20:41:24.308Z,1.73
2022-10-16T20:44:11.527Z,1.97
2022-10-16T20:46:58.743Z,1.67
2022-10-16T20:49:46.136Z,1.60
2022-10-16T20:52:34.764Z,1.60
2022-10-16T20:55:23.933Z,1.80
2022-10-16T20:58:12.653Z,1.83
2022-10-16T21:01:07.373Z,1.80
2022-10-16T21:03:57.401Z,1.50
2022-10-16T21:06:45.352Z,1.60
2022-10-16T21:09:32.659Z,1.60
2022-10-16T21:12:21.390Z,1.80
2022-10-16T21:15:14.767Z,2.70
2022-10-16T21:18:02.561Z,2.60
2022-10-16T21:20:50.002Z,1.83
2022-10-16T21:23:37.463Z,2.10
2022-10-16T21:26:26.957Z,1.80
2022-10-16T21:29:15.916Z,2.20
2022-10-16T21:32:03.228Z,2.10
2022-10-16T21:34:50.898Z,2.20
2022-10-16T21:37:38.334Z,1.80
2022-10-16T21:40:25.719Z,2.10
2022-10-16T21:43:13.291Z,1.87
2022-10-16T21:46:01.980Z,1.80
2022-10-16T21:48:50.245Z,2.10
2022-10-16T21:51:42.887Z,1.80
2022-10-16T21:54:30.311Z,1.73
2022-10-16T21:57:18.144Z,1.43
2022-10-16T22:00:08.917Z,1.80
2022-10-16T22:02:58.770Z,1.77
2022-10-16T22:05:46.207Z,1.73
2022-10-16T22:08:34.317Z,1.67
2022-10-16T22:11:24.852Z,1.40
2022-10-16T22:14:14.628Z,1.70
2022-10-16T22:17:01.972Z,1.57
2022-10-16T22:19:50.706Z,1.83
2022-10-16T22:22:37.986Z,1.93
2022-10-16T22:25:25.292Z,2.00
2022-10-16T22:28:12.929Z,1.90
2022-10-16T22:31:02.510Z,1.90
2022-10-16T22:33:49.953Z,1.93
2022-10-16T22:36:38.601Z,2.03
2022-10-16T22:39:25.859Z,1.63
2022-10-16T22:42:12.976Z,1.80
2022-10-16T22:45:00.275Z,1.87
2022-10-16T22:47:47.553Z,1.50
2022-10-16T22:50:34.921Z,1.90
2022-10-16T22:53:23.639Z,1.30
2022-10-16T22:56:12.053Z,1.63
2022-10-16T22:58:59.531Z,2.20
2022-10-16T23:01:46.735Z,2.00
2022-10-16T23:04:34.006Z,1.83
2022-10-16T23:07:21.299Z,1.80
2022-10-16T23:10:11.139Z,1.67
2022-10-16T23:12:58.744Z,1.83
2022-10-16T23:15:46.309Z,1.80
2022-10-16T23:18:34.574Z,1.20
2022-10-16T23:21:25.744Z,1.43
2022-10-16T23:24:13.448Z,1.30
2022-10-16T23:27:02.119Z,1.60
2022-10-16T23:29:49.617Z,1.50
2022-10-16T23:32:37.389Z,1.50
2022-10-16T23:35:24.928Z,1.67
2022-10-16T23:38:12.238Z,1.33
2022-10-16T23:40:59.375Z,1.67
2022-10-16T23:43:48.377Z,1.80
2022-10-16T23:46:36.218Z,1.67
2022-10-16T23:49:23.613Z,1.10
2022-10-16T23:52:10.853Z,1.10
2022-10-16T23:54:58.244Z,1.10
2022-10-16T23:57:45.423Z,0.97
